EDT,Max TemperatureF,Mean TemperatureF,Min TemperatureF,Max Dew PointF,MeanDew PointF,Min DewpointF,Max Humidity, Mean Humidity, Min Humidity, Max Sea Level PressureIn, Mean Sea Level PressureIn, Min Sea Level PressureIn, Max VisibilityMiles, Mean VisibilityMiles, Min VisibilityMiles, Max Wind SpeedMPH, Mean Wind SpeedMPH, Max Gust SpeedMPH,PrecipitationIn, CloudCover, Events, WindDirDegrees
2013-5-1,73,62,51,48,44,34,82,54,29,30.36,30.30,30.23,10,10,6,15,10,21,0.00,1,,172
2013-5-2,73,62,50,36,29,23,51,30,16,30.41,30.34,30.26,10,10,10,14,9,20,0.00,0,,166
2013-5-3,73,62,51,41,36,27,54,39,27,30.30,30.26,30.20,10,10,10,15,8,22,0.00,0,,165
2013-5-4,71,58,46,37,34,30,66,42,23,30.27,30.21,30.13,10,10,10,15,8,21,0.00,0,,158
2013-5-5,73,60,48,41,31,16,66,37,15,30.21,30.15,30.07,10,10,10,15,7,24,0.00,0,,151
2013-5-6,71,58,46,46,34,18,67,41,21,30.15,30.11,30.03,10,10,7,10,7,,0.00,0,,165
2013-5-7,73,63,53,48,45,41,82,55,31,30.12,30.07,30.01,10,10,10,12,4,16,0.00,3,,98
2013-5-8,66,60,53,55,50,45,94,73,49,30.05,30.01,29.96,10,10,9,10,5,,0.17,6,Thunderstorm,97
2013-5-9,66,60,53,55,51,45,100,78,49,30.02,29.96,29.91,10,8,0,14,5,21,0.00,6,,307
2013-5-10,69,60,50,55,50,43,94,77,60,30.00,29.89,29.78,10,9,3,15,7,34,1.41,5,Thunderstorm,193
2013-5-11,57,50,42,55,44,39,94,88,81,29.81,29.78,29.73,10,9,2,17,9,22,0.13,8,,240
2013-5-12,46,40,33,43,29,25,87,68,49,29.99,29.86,29.76,10,10,3,29,15,37,0.01,7,,266
2013-5-13,41,36,32,27,26,23,80,68,52,30.15,30.06,29.97,10,10,1,14,9,21,0.01,6,,285
2013-5-14,48,38,28,37,29,21,93,68,37,30.15,30.07,29.93,10,10,10,16,6,18,0.00,5,,188
2013-5-15,75,60,44,59,45,36,76,59,46,29.92,29.78,29.68,10,10,10,26,12,34,0.00,2,,228
2013-5-16,71,61,51,52,41,30,82,50,31,30.03,29.89,29.80,10,10,10,20,7,29,0.00,1,,280
2013-5-17,66,55,44,43,39,36,76,55,37,30.22,30.14,30.03,10,10,10,12,6,17,0.00,1,,44
2013-5-18,69,61,53,52,43,36,72,53,43,30.21,30.18,30.13,10,10,8,10,7,,0.00,6,,98
2013-5-19,75,66,57,61,56,52,88,76,53,30.17,30.10,30.04,10,10,7,14,10,20,0.00,5,,168
2013-5-20,80,70,59,64,60,55,94,72,51,30.09,30.02,29.93,10,9,0,14,8,18,0.00,2,,187
2013-5-21,82,72,60,66,62,57,94,72,48,29.98,29.91,29.84,10,9,4,25,7,31,0.19,4,Thunderstorm,218
2013-5-22,82,71,60,64,61,57,94,74,45,29.89,29.83,29.75,10,10,7,18,9,28,0.24,2,,200
2013-5-23,69,56,42,61,55,39,94,84,60,29.91,29.82,29.79,10,8,0,17,10,22,0.41,7,Thunderstorm,255
2013-5-24,42,38,35,39,34,32,93,85,66,30.23,30.11,29.92,10,7,3,18,13,25,0.03,8,,338
2013-5-25,53,44,35,36,32,28,87,65,44,30.27,30.23,30.20,10,10,10,23,9,28,0.00,2,,327
2013-5-26,57,48,39,36,32,28,81,55,33,30.27,30.23,30.19,10,10,10,16,9,24,0.00,0,,319
2013-5-27,64,50,35,43,36,30,93,58,32,30.29,30.23,30.15,10,10,10,9,2,,0.00,0,,203
2013-5-28,69,58,48,63,54,41,100,87,62,30.17,30.05,29.96,10,8,3,13,6,28,2.22,7,Thunderstorm,173
2013-5-29,77,68,60,64,62,57,100,80,65,30.11,30.04,29.98,10,10,2,15,9,22,0.17,5,,222
2013-5-30,78,70,62,66,62,57,100,77,57,30.21,30.16,30.11,10,10,2,10,6,26,0.06,2,Thunderstorm,215
2013-5-31,82,72,62,66,61,57,94,69,48,30.15,30.10,30.02,10,10,10,14,7,22,0.00,1,,212